Time;durP1;ratioP1;P1;durP2;ratioP2;P2;SDS_P1;SDS_P2;PMS_P1;PMS_P2;Temp;Humidity;BMP_temperature;BMP_pressure;BME280_temperature;BME280_humidity;BME280_pressure;Samples;Min_cycle;Max_cycle;Signal;HPM_P1;HPM_P2
2022/06/19 00:02:11;;;;;;;5.45;4.28;;;;;;;12.85;100.00;99599.23;1734205;81;21019;-74
2022/06/19 00:04:39;;;;;;;5.90;4.75;;;;;;;12.86;100.00;99605.30;1733902;81;21062;-74
2022/06/19 00:07:05;;;;;;;5.60;5.03;;;;;;;12.84;100.00;99602.77;1737731;81;21082;-74
2022/06/19 00:09:32;;;;;;;8.70;4.62;;;;;;;12.83;100.00;99602.38;1737700;82;20982;-74
2022/06/19 00:11:59;;;;;;;4.55;4.15;;;;;;;12.81;100.00;99600.76;1733440;81;21567;-74
2022/06/19 00:14:25;;;;;;;5.42;4.90;;;;;;;12.80;100.00;99609.05;1741053;81;20998;-74
2022/06/19 00:16:52;;;;;;;9.08;5.20;;;;;;;12.78;100.00;99604.39;1737197;82;20954;-74
2022/06/19 00:19:18;;;;;;;6.42;5.30;;;;;;;12.76;100.00;99610.14;1735634;82;21099;-74
2022/06/19 00:21:46;;;;;;;5.08;4.05;;;;;;;12.74;100.00;99611.97;1704063;82;21017;-73
2022/06/19 00:24:13;;;;;;;6.05;3.17;;;;;;;12.73;100.00;99605.91;1730293;81;21498;-74
2022/06/19 00:26:40;;;;;;;4.80;4.20;;;;;;;12.72;100.00;99609.44;1737095;82;21075;-74
2022/06/19 00:29:07;;;;;;;4.70;4.40;;;;;;;12.70;100.00;99606.51;1730137;82;21122;-74
2022/06/19 00:31:33;;;;;;;5.65;3.92;;;;;;;12.67;100.00;99608.80;1732081;81;21493;-74
2022/06/19 00:34:00;;;;;;;4.30;3.50;;;;;;;12.67;100.00;99613.17;1729305;81;20981;-74
2022/06/19 00:36:27;;;;;;;3.85;3.12;;;;;;;12.65;100.00;99617.16;1740028;81;21068;-74
2022/06/19 00:38:55;;;;;;;4.30;3.87;;;;;;;12.63;100.00;99617.69;1737580;81;20979;-74
2022/06/19 00:41:23;;;;;;;7.40;4.40;;;;;;;12.62;100.00;99617.76;1730953;81;20988;-74
2022/06/19 00:43:59;;;;;;;4.47;3.90;;;;;;;12.59;100.00;99625.76;1742673;81;22801;-74
2022/06/19 00:46:52;;;;;;;4.87;4.40;;;;;;;12.56;100.00;99617.61;1743946;81;20977;-74
2022/06/19 00:49:30;;;;;;;4.17;3.83;;;;;;;12.53;100.00;99618.21;1746161;81;21002;-74
2022/06/19 00:52:10;;;;;;;4.87;4.08;;;;;;;12.51;100.00;99623.95;1731696;82;21439;-74
2022/06/19 00:54:45;;;;;;;4.58;4.17;;;;;;;12.50;100.00;99620.95;1732256;82;20941;-74
2022/06/19 00:57:12;;;;;;;4.62;4.22;;;;;;;12.51;100.00;99627.41;1725137;82;21130;-73
2022/06/19 00:59:39;;;;;;;3.87;3.58;;;;;;;12.50;100.00;99629.63;1736237;81;21053;-73
2022/06/19 01:02:06;;;;;;;4.85;3.47;;;;;;;12.49;100.00;99627.09;1734037;81;21054;-74
2022/06/19 01:04:41;;;;;;;4.55;4.10;;;;;;;12.47;100.00;99628.92;1728599;82;21572;-74
2022/06/19 01:07:09;;;;;;;4.12;3.83;;;;;;;12.45;100.00;99632.05;1732329;81;21060;-73
2022/06/19 01:09:37;;;;;;;5.15;4.65;;;;;;;12.41;100.00;99624.83;1737082;81;22334;-74
2022/06/19 01:12:04;;;;;;;4.30;3.83;;;;;;;12.36;100.00;99623.76;1748406;81;21025;-74
2022/06/19 01:14:32;;;;;;;4.92;3.80;;;;;;;12.35;100.00;99627.28;1730853;81;21045;-73
2022/06/19 01:17:03;;;;;;;7.30;4.20;;;;;;;12.34;100.00;99633.88;1743735;81;21588;-74
2022/06/19 01:19:32;;;;;;;5.10;4.70;;;;;;;12.31;100.00;99628.33;1735488;81;21544;-74
2022/06/19 01:22:06;;;;;;;6.00;4.53;;;;;;;12.30;100.00;99628.41;1736903;81;21273;-74
2022/06/19 01:25:09;;;;;;;4.30;3.90;;;;;;;12.27;100.00;99629.84;1737116;82;20955;-74
2022/06/19 01:30:30;;;;;;;4.30;3.87;;;;;;;12.24;100.00;99632.12;1731994;81;21058;-74
2022/06/19 01:32:59;;;;;;;4.83;4.20;;;;;;;12.22;100.00;99626.59;1737710;81;21052;-74
2022/06/19 01:35:28;;;;;;;4.95;3.77;;;;;;;12.19;100.00;99629.36;1730910;81;21248;-74
2022/06/19 01:37:57;;;;;;;4.42;3.00;;;;;;;12.16;100.00;99629.04;1743348;81;20953;-74
2022/06/19 01:40:27;;;;;;;4.47;3.20;;;;;;;12.14;100.00;99633.48;1742267;81;21010;-73
2022/06/19 01:42:54;;;;;;;4.75;4.05;;;;;;;12.13;100.00;99628.33;1736490;81;21678;-74
2022/06/19 01:45:20;;;;;;;8.20;4.70;;;;;;;12.11;100.00;99628.39;1726291;82;21457;-73
2022/06/19 01:47:47;;;;;;;4.58;4.15;;;;;;;12.08;100.00;99631.98;1729780;82;21207;-74
2022/06/19 01:50:17;;;;;;;4.20;3.80;;;;;;;12.07;100.00;99630.29;1729954;81;20955;-72
2022/06/19 01:52:43;;;;;;;5.97;3.50;;;;;;;12.08;100.00;99625.92;1734127;81;21411;-72
2022/06/19 01:55:18;;;;;;;4.97;3.85;;;;;;;12.08;100.00;99628.07;1734417;82;21124;-73
2022/06/19 01:57:49;;;;;;;4.47;4.08;;;;;;;12.08;100.00;99628.53;1735847;81;21003;-72
2022/06/19 02:00:26;;;;;;;7.70;3.98;;;;;;;12.08;100.00;99624.16;1730975;81;21954;-72
2022/06/19 02:03:19;;;;;;;8.20;3.75;;;;;;;12.10;100.00;99627.16;1745504;81;21521;-73
2022/06/19 02:05:46;;;;;;;3.35;2.90;;;;;;;12.12;100.00;99631.39;1737358;81;26535;-74
2022/06/19 02:08:13;;;;;;;4.55;3.50;;;;;;;12.18;100.00;99628.52;1741905;81;21026;-74
2022/06/19 02:10:40;;;;;;;5.33;3.87;;;;;;;12.33;100.00;99626.97;1730487;81;21601;-74
2022/06/19 02:13:09;;;;;;;5.95;3.33;;;;;;;12.57;100.00;99629.74;1723661;82;21215;-74
2022/06/19 02:15:38;;;;;;;3.30;3.00;;;;;;;12.86;100.00;99630.09;1729601;82;21011;-74
2022/06/19 02:18:06;;;;;;;4.17;2.87;;;;;;;13.17;100.00;99632.95;1732281;82;20986;-74
2022/06/19 02:20:32;;;;;;;4.40;3.10;;;;;;;13.54;100.00;99632.41;1723798;81;21001;-74
2022/06/19 02:23:02;;;;;;;7.50;3.12;;;;;;;13.93;100.00;99635.58;1733479;82;21505;-74
2022/06/19 02:25:29;;;;;;;4.80;2.80;;;;;;;14.32;100.00;99639.16;1709632;81;21607;-74
2022/06/19 02:27:57;;;;;;;5.85;2.77;;;;;;;14.70;100.00;99638.39;1738226;81;21077;-74
2022/06/19 02:30:23;;;;;;;3.72;3.05;;;;;;;15.12;97.18;99636.44;1726236;82;21446;-74
2022/06/19 02:32:50;;;;;;;4.62;3.15;;;;;;;15.53;94.20;99634.48;1735104;81;21054;-74
2022/06/19 02:35:22;;;;;;;3.50;3.20;;;;;;;15.91;91.85;99640.56;1740390;81;21140;-74
2022/06/19 02:37:53;;;;;;;3.25;2.92;;;;;;;16.32;89.96;99632.77;1738880;81;21159;-74
2022/06/19 02:40:51;;;;;;;13.43;3.25;;;;;;;16.76;87.17;99639.19;1733222;81;21065;-74
2022/06/19 02:43:21;;;;;;;9.35;3.67;;;;;;;17.19;83.99;99633.27;1735837;81;21026;-74
2022/06/19 02:45:48;;;;;;;3.87;2.92;;;;;;;17.68;81.61;99644.50;1734430;81;21524;-74
2022/06/19 02:48:23;;;;;;;2.52;2.33;;;;;;;18.06;78.38;99644.02;1736691;82;20951;-74
2022/06/19 02:50:50;;;;;;;4.70;2.72;;;;;;;18.44;75.71;99638.70;1744047;81;21223;-73
2022/06/19 02:53:17;;;;;;;4.00;2.87;;;;;;;18.79;73.29;99634.03;1734255;81;20998;-74
2022/06/19 02:55:43;;;;;;;8.30;2.83;;;;;;;19.14;71.60;99633.63;1730045;81;20969;-74
2022/06/19 02:58:10;;;;;;;5.62;2.87;;;;;;;19.52;69.63;99629.94;1739527;81;21012;-74
2022/06/19 03:00:37;;;;;;;6.50;2.85;;;;;;;19.92;67.65;99628.57;1727378;81;20941;-74
2022/06/19 03:03:12;;;;;;;6.40;2.47;;;;;;;20.35;65.83;99626.53;1724938;82;21539;-74
2022/06/19 03:05:40;;;;;;;5.67;3.87;;;;;;;20.82;64.39;99631.98;1739604;81;21109;-75
2022/06/19 03:08:07;;;;;;;3.30;2.27;;;;;;;21.38;62.52;99636.27;1700337;83;20964;-76
2022/06/19 03:10:33;;;;;;;4.53;2.72;;;;;;;21.89;60.32;99633.17;1736929;81;21022;-75
2022/06/19 03:13:00;;;;;;;6.03;2.47;;;;;;;22.21;58.69;99641.02;1706307;82;21417;-74
2022/06/19 03:15:27;;;;;;;3.15;2.20;;;;;;;22.29;57.17;99643.84;1742173;81;22072;-74
2022/06/19 03:17:54;;;;;;;4.95;2.70;;;;;;;22.25;56.45;99646.41;1732704;81;20946;-74
2022/06/19 03:20:24;;;;;;;3.67;2.70;;;;;;;22.35;55.62;99646.45;1713431;81;21027;-75
2022/06/19 03:22:52;;;;;;;3.98;2.80;;;;;;;22.59;54.91;99646.92;1688373;84;20998;-75
2022/06/19 03:25:19;;;;;;;4.67;2.02;;;;;;;22.84;54.27;99646.11;1687475;85;21021;-75
2022/06/19 03:27:45;;;;;;;2.72;2.35;;;;;;;23.13;53.95;99639.03;1687419;85;21491;-75
2022/06/19 03:30:14;;;;;;;4.80;2.80;;;;;;;23.33;53.17;99638.55;1663785;85;21002;-75
2022/06/19 03:32:40;;;;;;;4.42;2.50;;;;;;;23.53;52.72;99639.39;1687451;85;21446;-75
2022/06/19 03:35:08;;;;;;;3.47;2.90;;;;;;;23.84;51.87;99634.22;1687385;84;20987;-76
2022/06/19 03:37:36;;;;;;;5.53;2.80;;;;;;;24.20;51.06;99638.36;1681799;85;20967;-75
2022/06/19 03:40:04;;;;;;;5.83;2.83;;;;;;;24.59;50.12;99630.56;1674346;85;21249;-76
2022/06/19 03:42:32;;;;;;;9.08;3.17;;;;;;;24.99;49.14;99624.03;1681260;84;21747;-76
2022/06/19 03:44:58;;;;;;;5.33;2.92;;;;;;;25.36;47.71;99630.55;1683273;84;21049;-76
2022/06/19 03:47:26;;;;;;;7.42;2.83;;;;;;;25.74;46.64;99614.70;1693755;84;21019;-76
2022/06/19 03:49:53;;;;;;;3.42;2.50;;;;;;;26.09;45.74;99615.91;1687439;85;21442;-76
2022/06/19 03:52:19;;;;;;;4.00;2.60;;;;;;;26.40;44.96;99614.05;1687656;85;21068;-76
2022/06/19 03:54:45;;;;;;;5.05;3.10;;;;;;;26.67;44.76;99608.98;1687374;85;20962;-76
2022/06/19 03:57:13;;;;;;;3.77;2.52;;;;;;;26.97;43.93;99609.75;1687429;83;21446;-77
2022/06/19 03:59:39;;;;;;;3.22;2.85;;;;;;;27.21;43.29;99612.08;1687358;85;21125;-76
2022/06/19 04:02:08;;;;;;;3.55;2.80;;;;;;;27.48;42.71;99601.06;1683926;84;20974;-77
2022/06/19 04:04:36;;;;;;;5.70;3.45;;;;;;;27.76;42.00;99608.25;1683728;84;21280;-77
2022/06/19 04:07:03;;;;;;;5.50;3.27;;;;;;;28.01;41.57;99600.98;1685791;83;21529;-76
2022/06/19 04:09:30;;;;;;;16.75;4.92;;;;;;;28.27;40.86;99599.41;1669717;84;21053;-77
2022/06/19 04:11:56;;;;;;;8.78;4.90;;;;;;;28.54;40.06;99595.45;1749466;81;20983;-77
2022/06/19 04:14:23;;;;;;;12.73;5.42;;;;;;;28.77;39.46;99594.98;1743925;81;21065;-76
2022/06/19 04:16:49;;;;;;;129.05;15.08;;;;;;;28.98;38.93;99591.66;1729759;81;21144;-76
2022/06/19 04:19:16;;;;;;;26.20;8.18;;;;;;;29.24;38.92;99590.80;1733108;82;20994;-77
2022/06/19 04:21:45;;;;;;;84.05;24.92;;;;;;;29.44;38.22;99600.02;1737016;82;20963;-76
2022/06/19 04:24:13;;;;;;;25.35;8.48;;;;;;;29.57;37.94;99605.29;1736734;81;21061;-76
2022/06/19 04:26:40;;;;;;;19.35;6.75;;;;;;;29.77;37.88;99613.13;1739438;80;21117;-76
2022/06/19 04:29:08;;;;;;;18.07;4.45;;;;;;;29.95;37.54;99609.58;1735007;81;21130;-76
2022/06/19 04:31:35;;;;;;;6.97;3.70;;;;;;;30.14;37.41;99610.91;1727520;82;20970;-76
2022/06/19 04:34:02;;;;;;;8.10;3.27;;;;;;;30.41;37.05;99610.72;1728940;82;21103;-76
2022/06/19 04:36:30;;;;;;;7.20;2.90;;;;;;;30.71;36.66;99610.19;1737764;82;21038;-76
2022/06/19 04:38:57;;;;;;;4.60;2.62;;;;;;;30.96;36.08;99615.53;1739334;82;21442;-76
2022/06/19 04:41:31;;;;;;;10.80;2.90;;;;;;;31.14;35.68;99619.14;1734278;82;21159;-76
2022/06/19 04:43:59;;;;;;;5.67;2.72;;;;;;;31.23;35.64;99618.48;1737522;81;20975;-76
2022/06/19 04:46:26;;;;;;;20.65;5.65;;;;;;;31.37;35.40;99617.59;1732599;81;20961;-76
2022/06/19 04:48:52;;;;;;;19.95;6.28;;;;;;;31.57;35.06;99607.83;1738529;81;21019;-76
2022/06/19 04:51:20;;;;;;;17.00;4.80;;;;;;;31.74;34.83;99613.26;1735861;81;21555;-76
2022/06/19 04:53:48;;;;;;;31.52;8.68;;;;;;;31.94;34.78;99612.05;1748428;81;21959;-76
2022/06/19 04:56:16;;;;;;;16.07;5.50;;;;;;;32.18;34.44;99612.87;1748495;81;20978;-76
2022/06/19 04:58:42;;;;;;;6.62;3.72;;;;;;;32.39;34.15;99613.31;1745146;81;21462;-76
2022/06/19 05:01:13;;;;;;;8.85;3.10;;;;;;;32.55;33.90;99615.37;1744277;81;22921;-76
2022/06/19 05:03:40;;;;;;;5.25;3.12;;;;;;;32.69;33.75;99615.20;1735616;81;21020;-76
2022/06/19 05:06:07;;;;;;;6.40;3.55;;;;;;;32.86;33.35;99615.17;1735972;81;21043;-76
2022/06/19 05:08:35;;;;;;;19.95;3.47;;;;;;;32.99;32.93;99619.75;1739412;81;20963;-76
2022/06/19 05:11:01;;;;;;;6.25;2.33;;;;;;;32.88;32.45;99621.70;1719604;82;20957;-76
2022/06/19 05:13:28;;;;;;;4.45;1.65;;;;;;;32.39;32.16;99621.91;1723147;82;21188;-76
2022/06/19 05:16:04;;;;;;;4.58;2.40;;;;;;;31.79;32.22;99624.23;1722384;82;21046;-76
2022/06/19 05:18:32;;;;;;;7.40;2.47;;;;;;;31.36;32.69;99624.83;1731636;82;21218;-76
2022/06/19 05:21:01;;;;;;;3.30;2.60;;;;;;;31.15;33.45;99624.84;1734747;81;21635;-75
2022/06/19 05:23:29;;;;;;;7.67;2.65;;;;;;;31.04;33.55;99623.95;1737237;82;21034;-75
2022/06/19 05:26:02;;;;;;;4.87;2.50;;;;;;;30.80;33.74;99625.14;1726569;82;20994;-77
2022/06/19 05:28:29;;;;;;;4.70;2.45;;;;;;;30.59;34.25;99625.10;1730107;81;21210;-76
2022/06/19 05:30:58;;;;;;;2.67;2.20;;;;;;;30.54;34.53;99627.52;1676423;83;21082;-76
2022/06/19 05:33:26;;;;;;;5.45;2.40;;;;;;;30.60;34.34;99630.28;1672241;84;21045;-76
2022/06/19 05:35:53;;;;;;;7.85;2.58;;;;;;;30.62;33.72;99637.64;1673139;84;21068;-76
2022/06/19 05:38:20;;;;;;;13.78;10.65;;;;;;;30.55;33.67;99642.59;1741464;81;21061;-77
2022/06/19 05:40:51;;;;;;;6.00;2.60;;;;;;;30.55;33.54;99636.75;1725192;81;21529;-77
2022/06/19 05:43:22;;;;;;;4.95;2.50;;;;;;;30.57;33.23;99637.91;1727499;82;21226;-77
2022/06/19 05:46:01;;;;;;;6.53;2.10;;;;;;;30.46;33.43;99635.98;1728822;82;21115;-77
2022/06/19 05:48:30;;;;;;;9.08;2.37;;;;;;;30.35;33.85;99638.32;1732737;81;21512;-75
2022/06/19 05:51:03;;;;;;;4.72;2.00;;;;;;;30.54;33.77;99625.66;1736688;81;21002;-77
2022/06/19 05:53:32;;;;;;;1.98;1.60;;;;;;;30.77;33.25;99630.92;1736104;81;21061;-77
2022/06/19 05:55:59;;;;;;;14.05;2.87;;;;;;;30.89;32.54;99630.73;1734322;81;21125;-77
2022/06/19 05:58:26;;;;;;;9.20;2.30;;;;;;;30.93;32.67;99629.84;1749070;81;21514;-77
2022/06/19 06:00:52;;;;;;;7.33;2.60;;;;;;;30.89;32.92;99636.61;1737075;81;21006;-76
2022/06/19 06:03:20;;;;;;;4.95;2.30;;;;;;;30.74;32.83;99631.30;1744696;81;21116;-76
2022/06/19 06:05:46;;;;;;;6.47;2.50;;;;;;;30.45;33.34;99632.14;1739731;81;20959;-75
2022/06/19 06:08:13;;;;;;;4.78;1.95;;;;;;;30.12;33.68;99631.20;1717194;82;21159;-77
2022/06/19 06:10:41;;;;;;;15.48;4.20;;;;;;;29.89;34.22;99624.22;1729793;81;20995;-77
2022/06/19 06:13:08;;;;;;;3.33;2.27;;;;;;;29.71;34.00;99633.45;1733507;81;20969;-76
2022/06/19 06:15:35;;;;;;;5.95;2.40;;;;;;;29.51;34.39;99634.15;1727317;81;20973;-76
2022/06/19 06:18:02;;;;;;;7.50;1.92;;;;;;;29.33;34.39;99632.59;1730417;81;22033;-76
2022/06/19 06:20:30;;;;;;;3.08;1.75;;;;;;;29.18;33.95;99625.52;1742844;81;21146;-77
2022/06/19 06:22:58;;;;;;;5.95;2.40;;;;;;;28.94;34.49;99636.73;1734106;81;21057;-77
2022/06/19 06:25:24;;;;;;;6.95;3.77;;;;;;;28.88;35.16;99635.26;1734898;81;20956;-77
2022/06/19 06:27:51;;;;;;;9.48;2.40;;;;;;;28.67;35.51;99644.70;1728834;81;21453;-77
2022/06/19 06:30:18;;;;;;;4.70;1.95;;;;;;;28.50;35.58;99641.78;1738592;81;21050;-77
2022/06/19 06:32:45;;;;;;;2.12;1.95;;;;;;;28.41;35.50;99634.28;1736362;82;21919;-77
2022/06/19 06:35:12;;;;;;;12.18;3.42;;;;;;;28.42;35.48;99630.61;1731102;82;20988;-78
2022/06/19 06:37:39;;;;;;;2.05;1.72;;;;;;;28.48;35.98;99626.41;1728931;81;21505;-77
2022/06/19 06:40:08;;;;;;;3.50;1.70;;;;;;;28.52;35.50;99619.70;1734311;81;20998;-77
2022/06/19 06:42:35;;;;;;;4.00;1.40;;;;;;;28.50;35.75;99616.88;1743464;80;21462;-77
2022/06/19 06:45:02;;;;;;;2.92;1.50;;;;;;;28.39;35.18;99612.72;1733310;80;21002;-77
2022/06/19 06:47:29;;;;;;;4.95;2.77;;;;;;;28.26;35.01;99618.64;1725909;82;20966;-77
2022/06/19 06:49:55;;;;;;;3.92;1.60;;;;;;;28.09;34.78;99613.83;1730624;81;20968;-76
2022/06/19 06:52:23;;;;;;;5.58;2.02;;;;;;;27.94;35.40;99618.23;1735592;82;21011;-77
2022/06/19 06:54:50;;;;;;;5.67;2.20;;;;;;;27.84;35.36;99624.75;1737729;81;21409;-76
2022/06/19 06:57:17;;;;;;;2.25;1.40;;;;;;;27.56;35.41;99624.28;1745368;81;21119;-77
2022/06/19 06:59:43;;;;;;;2.45;1.40;;;;;;;27.26;36.29;99619.09;1733257;80;21041;-77
2022/06/19 07:02:10;;;;;;;5.67;1.45;;;;;;;27.03;36.57;99618.91;1732272;82;21068;-77
2022/06/19 07:04:37;;;;;;;6.70;2.87;;;;;;;26.86;37.17;99616.69;1734843;82;20962;-77
2022/06/19 07:07:04;;;;;;;2.83;1.40;;;;;;;26.73;37.52;99623.84;1725681;82;21107;-76
2022/06/19 07:09:32;;;;;;;4.97;1.40;;;;;;;26.68;37.54;99629.33;1737445;81;21201;-76
2022/06/19 07:11:59;;;;;;;1.82;1.15;;;;;;;26.66;37.36;99620.64;1734757;82;21002;-77
2022/06/19 07:14:27;;;;;;;2.02;1.35;;;;;;;26.64;37.32;99619.97;1742841;81;21061;-77
2022/06/19 07:16:54;;;;;;;15.10;2.80;;;;;;;26.64;37.65;99620.80;1706456;81;21140;-78
2022/06/19 07:19:21;;;;;;;3.50;1.32;;;;;;;26.72;37.79;99619.50;1745169;81;21006;-77
2022/06/19 07:21:48;;;;;;;4.37;1.57;;;;;;;26.89;37.78;99624.88;1726991;81;21731;-76
2022/06/19 07:24:14;;;;;;;4.00;2.25;;;;;;;26.94;36.22;99623.42;1711680;83;21009;-77
2022/06/19 07:26:41;;;;;;;3.85;1.20;;;;;;;26.82;35.88;99622.02;1675225;84;21426;-78
2022/06/19 07:29:08;;;;;;;1.85;1.10;;;;;;;26.65;35.74;99623.81;1684200;84;21083;-77
2022/06/19 07:31:36;;;;;;;1.75;1.22;;;;;;;26.47;36.30;99624.92;1678166;84;21435;-77
2022/06/19 07:34:03;;;;;;;3.27;1.10;;;;;;;26.36;36.88;99616.73;1680769;84;21219;-77
2022/06/19 07:36:30;;;;;;;1.82;1.20;;;;;;;26.34;36.64;99616.05;1663553;85;20961;-77
2022/06/19 07:38:57;;;;;;;3.72;1.00;;;;;;;26.37;36.38;99611.73;1689607;84;21022;-77
2022/06/19 07:41:24;;;;;;;1.95;0.90;;;;;;;26.42;35.87;99604.89;1672783;84;21505;-77
2022/06/19 07:43:52;;;;;;;2.47;1.00;;;;;;;26.46;35.80;99602.75;1685805;84;20998;-77
2022/06/19 07:46:19;;;;;;;2.02;1.22;;;;;;;26.51;35.89;99595.60;1685395;84;22184;-77
2022/06/19 07:51:32;;;;;;;3.25;0.98;;;;;;;26.54;35.28;99597.95;1704427;83;21154;-78
2022/06/19 07:54:00;;;;;;;2.55;1.00;;;;;;;26.46;35.49;99589.91;1707859;82;21622;-77
2022/06/19 07:56:26;;;;;;;2.67;1.27;;;;;;;26.43;35.91;99591.91;1708172;83;21138;-77
2022/06/19 07:58:54;;;;;;;1.10;0.88;;;;;;;26.38;35.93;99593.38;1703902;83;21141;-78
2022/06/19 08:01:20;;;;;;;0.78;0.78;;;;;;;26.32;36.01;99589.55;1707457;83;21106;-77
2022/06/19 08:03:48;;;;;;;1.30;0.82;;;;;;;26.34;35.58;99590.22;1710908;83;21048;-77
2022/06/19 08:06:17;;;;;;;4.62;1.50;;;;;;;26.37;35.70;99592.57;1704880;83;21004;-77
2022/06/19 08:08:44;;;;;;;3.50;1.47;;;;;;;26.52;35.95;99590.60;1703737;82;21496;-77
2022/06/19 08:11:10;;;;;;;8.38;1.57;;;;;;;26.66;36.02;99585.46;1716701;82;21164;-77
2022/06/19 08:13:38;;;;;;;2.90;1.20;;;;;;;26.83;36.03;99571.64;1712076;83;21011;-77
2022/06/19 08:16:07;;;;;;;1.27;1.10;;;;;;;27.02;35.91;99566.52;1682081;83;21564;-76
2022/06/19 08:18:34;;;;;;;9.60;2.85;;;;;;;27.16;35.15;99559.70;1693804;83;21073;-76
2022/06/19 08:21:02;;;;;;;4.78;1.30;;;;;;;27.21;35.13;99561.34;1703848;83;21016;-76
2022/06/19 08:23:29;;;;;;;2.67;1.05;;;;;;;27.24;35.58;99565.85;1700401;83;21906;-76
2022/06/19 08:25:56;;;;;;;3.00;0.95;;;;;;;27.23;35.28;99575.36;1699426;83;21012;-77
2022/06/19 08:31:09;;;;;;;3.05;1.12;;;;;;;27.10;34.85;99569.20;1697386;83;21562;-77
2022/06/19 08:33:36;;;;;;;3.17;1.05;;;;;;;27.09;34.44;99567.53;1705736;83;21024;-77
2022/06/19 08:36:06;;;;;;;2.30;1.00;;;;;;;27.11;35.00;99576.22;1709603;83;21577;-77
2022/06/19 08:38:37;;;;;;;0.82;0.80;;;;;;;27.12;34.66;99565.03;1706548;83;20952;-77
2022/06/19 08:41:15;;;;;;;2.10;0.93;;;;;;;27.04;34.68;99561.35;1690890;83;21048;-77
2022/06/19 08:44:04;;;;;;;6.55;1.82;;;;;;;26.99;34.47;99564.17;1705164;83;21004;-77
2022/06/19 08:46:57;;;;;;;3.02;0.80;;;;;;;26.95;34.46;99568.20;1697327;83;21003;-77
2022/06/19 08:49:36;;;;;;;3.72;0.98;;;;;;;26.93;34.41;99568.34;1722725;82;21317;-77
2022/06/19 08:52:46;;;;;;;2.30;0.90;;;;;;;26.96;34.03;99556.03;1715143;83;21149;-77
2022/06/19 08:55:58;;;;;;;5.87;1.90;;;;;;;26.95;34.51;99547.69;1683614;83;21414;-77
2022/06/19 08:58:46;;;;;;;1.67;1.02;;;;;;;27.08;34.51;99551.18;1710567;83;20972;-77
2022/06/19 09:01:42;;;;;;;1.30;1.10;;;;;;;27.19;34.69;99545.98;1658402;83;20950;-77
2022/06/19 09:07:54;;;;;;;2.80;1.17;;;;;;;27.25;34.42;99549.33;1703751;82;20995;-76
2022/06/19 09:10:51;;;;;;;0.90;0.90;;;;;;;27.27;33.99;99545.49;1714725;83;20995;-76
2022/06/19 09:13:32;;;;;;;3.33;1.45;;;;;;;27.34;33.62;99545.66;1701921;83;21040;-77
2022/06/19 09:16:03;;;;;;;3.10;1.10;;;;;;;27.39;33.26;99540.12;1710357;83;20976;-77
2022/06/19 09:18:39;;;;;;;1.72;0.95;;;;;;;27.41;33.04;99546.63;1686609;83;21744;-77
2022/06/19 09:21:12;;;;;;;1.70;1.00;;;;;;;27.49;33.29;99537.78;1705630;83;20997;-77
2022/06/19 09:23:56;;;;;;;1.62;1.22;;;;;;;27.57;33.24;99532.44;1695923;82;21042;-78
2022/06/19 09:26:39;;;;;;;1.10;1.10;;;;;;;27.59;33.29;99532.60;1703946;83;21088;-77
2022/06/19 09:29:25;;;;;;;1.77;0.90;;;;;;;27.60;32.77;99536.94;1711514;82;20992;-77
2022/06/19 09:32:19;;;;;;;3.22;0.90;;;;;;;27.55;32.71;99532.61;1707864;82;21107;-77
2022/06/19 09:34:55;;;;;;;2.37;1.00;;;;;;;27.58;33.04;99534.14;1688037;83;21674;-77
2022/06/19 09:37:55;;;;;;;2.15;1.10;;;;;;;27.63;32.87;99535.77;1694215;83;32575;-77
2022/06/19 09:40:39;;;;;;;3.52;1.17;;;;;;;27.68;32.69;99535.59;1686594;83;21182;-77
2022/06/19 09:43:23;;;;;;;1.35;0.85;;;;;;;27.77;33.05;99529.23;1713612;83;21642;-77
2022/06/19 09:46:07;;;;;;;1.30;1.00;;;;;;;27.89;32.84;99529.69;1705070;82;21503;-78
2022/06/19 09:48:49;;;;;;;1.30;1.07;;;;;;;27.96;32.55;99531.17;1698784;83;20957;-77
2022/06/19 09:51:42;;;;;;;1.40;1.05;;;;;;;28.02;32.61;99526.45;1708096;83;20975;-78
2022/06/19 09:54:19;;;;;;;2.62;0.95;;;;;;;28.13;32.66;99528.75;1708006;83;20995;-78
2022/06/19 09:57:22;;;;;;;1.17;1.07;;;;;;;28.21;32.25;99527.39;1702147;83;21007;-78
2022/06/19 09:59:54;;;;;;;6.43;1.47;;;;;;;28.26;32.05;99527.70;1704158;83;21207;-78
2022/06/19 10:02:30;;;;;;;3.12;1.20;;;;;;;28.25;31.96;99527.38;1713668;83;21059;-78
2022/06/19 10:05:08;;;;;;;0.93;0.85;;;;;;;28.21;31.89;99526.55;1708822;83;21439;-77
2022/06/19 10:07:44;;;;;;;1.20;0.90;;;;;;;28.16;31.50;99524.39;1679890;83;21460;-77
2022/06/19 10:10:24;;;;;;;7.72;1.17;;;;;;;28.11;31.95;99521.41;1700931;83;21029;-77
2022/06/19 10:12:52;;;;;;;4.33;1.12;;;;;;;28.18;31.91;99526.90;1720554;82;22216;-78
2022/06/19 10:15:30;;;;;;;2.33;1.05;;;;;;;28.21;31.86;99523.38;1721565;82;21517;-78
2022/06/19 10:18:10;;;;;;;1.55;0.95;;;;;;;28.23;31.75;99526.71;1702568;82;20995;-77
2022/06/19 10:21:08;;;;;;;2.45;1.47;;;;;;;28.23;31.33;99528.05;1702856;82;21139;-78
2022/06/19 10:23:52;;;;;;;1.07;0.90;;;;;;;28.18;31.30;99525.02;1699656;82;21011;-77
2022/06/19 10:26:40;;;;;;;1.85;1.10;;;;;;;28.11;31.46;99519.56;1714165;82;21172;-77
2022/06/19 10:29:24;;;;;;;1.75;1.00;;;;;;;28.10;31.94;99521.91;1696892;83;20963;-77
2022/06/19 10:32:22;;;;;;;3.08;0.90;;;;;;;28.11;31.80;99524.91;1712294;83;21043;-77
2022/06/19 10:35:09;;;;;;;3.50;0.93;;;;;;;28.08;31.40;99527.93;1723955;83;21256;-77
2022/06/19 10:38:15;;;;;;;0.70;0.70;;;;;;;28.09;31.55;99523.42;1717536;83;21099;-76
2022/06/19 10:44:35;;;;;;;2.70;1.00;;;;;;;28.21;30.98;99517.20;1676542;83;21011;-76
2022/06/19 10:47:13;;;;;;;1.10;1.00;;;;;;;28.29;30.90;99510.48;1726112;83;21055;-75
2022/06/19 10:49:55;;;;;;;1.55;0.80;;;;;;;28.33;31.26;99503.27;1723209;82;21027;-77
2022/06/19 10:52:38;;;;;;;2.75;1.42;;;;;;;28.41;31.32;99510.39;1717091;82;21590;-77
2022/06/19 10:55:26;;;;;;;2.67;1.07;;;;;;;28.42;31.43;99511.55;1695873;82;21138;-76
2022/06/19 10:58:20;;;;;;;1.45;0.95;;;;;;;28.49;31.74;99507.67;1707494;82;21516;-76
2022/06/19 11:00:57;;;;;;;2.55;1.07;;;;;;;28.60;31.08;99505.08;1720046;82;21046;-77
2022/06/19 11:06:42;;;;;;;1.17;0.88;;;;;;;28.75;31.23;99499.30;1710606;82;21456;-76
2022/06/19 11:09:19;;;;;;;4.97;1.20;;;;;;;28.76;30.45;99493.77;1723150;83;21183;-76
2022/06/19 11:11:46;;;;;;;3.33;1.12;;;;;;;28.72;30.63;99507.18;1709553;83;21027;-77
2022/06/19 11:14:34;;;;;;;0.70;0.70;;;;;;;28.63;30.79;99506.90;1710886;83;20972;-76
2022/06/19 11:17:07;;;;;;;1.62;1.00;;;;;;;28.55;30.66;99507.48;1706453;83;21015;-76
2022/06/19 11:19:41;;;;;;;1.67;0.90;;;;;;;28.41;30.70;99498.35;1718884;82;20948;-76
2022/06/19 11:22:37;;;;;;;2.47;0.90;;;;;;;28.33;30.99;99498.42;1702426;83;21280;-76
2022/06/19 11:25:23;;;;;;;2.72;1.30;;;;;;;28.30;31.69;99488.91;1713866;82;21409;-76
2022/06/19 11:28:01;;;;;;;5.40;1.10;;;;;;;28.43;32.02;99486.97;1707393;84;21067;-76
2022/06/19 11:30:41;;;;;;;2.47;1.40;;;;;;;28.58;31.48;99484.38;1691672;83;21037;-77
2022/06/19 11:33:17;;;;;;;1.42;0.93;;;;;;;28.63;31.75;99492.18;1707929;84;21530;-76
2022/06/19 11:35:55;;;;;;;1.80;1.15;;;;;;;28.75;31.81;99489.94;1685910;83;21163;-76
2022/06/19 11:38:39;;;;;;;1.05;0.90;;;;;;;28.84;31.68;99480.00;1700023;83;21475;-77
2022/06/19 11:41:29;;;;;;;1.30;0.90;;;;;;;28.91;31.57;99476.44;1697534;83;20984;-76
2022/06/19 11:44:17;;;;;;;3.25;1.17;;;;;;;28.97;31.40;99474.38;1682544;83;21717;-76
2022/06/19 11:46:53;;;;;;;5.58;1.25;;;;;;;29.05;31.67;99471.61;1702566;82;20968;-76
2022/06/19 11:49:32;;;;;;;3.72;1.00;;;;;;;29.10;30.75;99478.60;1723170;82;21164;-76
2022/06/19 11:52:02;;;;;;;4.22;1.10;;;;;;;29.00;30.43;99471.83;1718125;82;21016;-76
2022/06/19 11:54:31;;;;;;;1.67;0.90;;;;;;;28.87;30.28;99475.63;1718701;82;21034;-76
2022/06/19 11:57:00;;;;;;;4.95;1.05;;;;;;;28.74;30.57;99465.52;1715846;83;21154;-76
2022/06/19 11:59:45;;;;;;;1.87;0.80;;;;;;;28.75;31.07;99468.02;1703840;83;20976;-76
2022/06/19 12:02:29;;;;;;;1.55;0.80;;;;;;;28.83;31.38;99465.79;1712709;82;21146;-76
2022/06/19 12:04:59;;;;;;;1.70;0.93;;;;;;;28.95;31.84;99459.52;1713353;83;21017;-76
2022/06/19 12:07:29;;;;;;;2.50;0.85;;;;;;;29.03;31.78;99458.91;1720030;82;20955;-76
2022/06/19 12:10:04;;;;;;;1.42;1.15;;;;;;;29.10;31.76;99455.00;1708299;84;21016;-76
2022/06/19 12:12:33;;;;;;;3.10;1.40;;;;;;;29.14;31.76;99454.97;1700692;83;21170;-76
2022/06/19 12:15:16;;;;;;;4.03;1.42;;;;;;;29.21;31.68;99449.19;1703988;83;21162;-75